Terminal Aerodrome Forecast
Issued by NWS Grand Forks, ND

Home | Current Version | Previous Version | Graphics & Text | Print | Product List | Glossary On
Versions: 1 2 3 4 5 6 7 8 9 10 11 12 13 14
000
FTUS43 KFGF 240520
TAFGFK
TAF
KGFK 240520Z 2406/2506 30009KT P6SM SCT100
     FM241400 27010KT P6SM FEW250
     FM241700 27016G24KT P6SM SCT050
     FM250000 28014KT P6SM SCT110
     FM250300 28009KT P6SM SCT200=

USA.gov is the U.S. government's official web portal to all federal, state and local government web resources and services.